createdAt,value
2019-01-10T00:00:37.989Z,67.77
2019-01-10T00:03:11.297Z,64.23
2019-01-10T00:05:44.594Z,70.03
2019-01-10T00:08:16.713Z,66.40
2019-01-10T00:10:47.736Z,71.13
2019-01-10T00:13:18.603Z,66.83
2019-01-10T00:15:49.679Z,67.87
2019-01-10T00:18:20.360Z,71.03
2019-01-10T00:20:50.902Z,61.57
2019-01-10T00:23:22.192Z,63.27
2019-01-10T00:25:53.108Z,64.57
2019-01-10T00:28:23.740Z,69.00
2019-01-10T00:30:54.704Z,75.30
2019-01-10T00:33:25.491Z,74.40
2019-01-10T00:35:56.075Z,75.17
2019-01-10T00:38:27.419Z,70.73
2019-01-10T00:41:01.375Z,65.93
2019-01-10T00:43:32.345Z,68.30
2019-01-10T00:46:04.467Z,65.73
2019-01-10T00:48:35.199Z,66.70
2019-01-10T00:51:06.713Z,73.30
2019-01-10T00:53:37.367Z,69.43
2019-01-10T00:56:08.085Z,73.37
2019-01-10T00:58:38.755Z,65.63
2019-01-10T01:01:09.381Z,71.50
2019-01-10T01:03:39.848Z,66.77
2019-01-10T01:06:15.613Z,67.33
2019-01-10T01:08:46.125Z,65.53
2019-01-10T01:11:16.761Z,66.97
2019-01-10T01:13:47.437Z,65.13
2019-01-10T01:16:17.960Z,65.97
2019-01-10T01:18:48.881Z,64.63
2019-01-10T01:21:19.544Z,62.57
2019-01-10T01:23:50.254Z,67.20
2019-01-10T01:26:21.286Z,68.83
2019-01-10T01:28:51.959Z,68.70
2019-01-10T01:31:22.931Z,62.03
2019-01-10T01:33:57.019Z,69.37
2019-01-10T01:36:27.916Z,74.23
2019-01-10T01:38:58.589Z,64.17
2019-01-10T01:41:29.161Z,66.93
2019-01-10T01:43:59.751Z,67.00
2019-01-10T01:46:30.458Z,68.50
2019-01-10T01:49:01.099Z,68.47
2019-01-10T01:51:32.550Z,61.67
2019-01-10T01:54:04.970Z,62.87
2019-01-10T01:56:35.613Z,63.70
2019-01-10T01:59:07.615Z,66.33
2019-01-10T02:01:38.132Z,69.80
2019-01-10T02:04:09.054Z,72.90
2019-01-10T02:06:43.223Z,69.87
2019-01-10T02:09:13.773Z,64.43
2019-01-10T02:11:45.094Z,65.07
2019-01-10T02:14:17.598Z,66.80
2019-01-10T02:16:48.109Z,66.10
2019-01-10T02:19:22.194Z,64.87
2019-01-10T02:21:51.586Z,71.50
2019-01-10T02:24:24.859Z,64.97
2019-01-10T02:26:57.604Z,69.47
2019-01-10T02:29:28.213Z,71.90
2019-01-10T02:31:59.149Z,63.00
2019-01-10T02:34:30.270Z,70.03
2019-01-10T02:37:01.487Z,63.60
2019-01-10T02:39:32.467Z,79.33
2019-01-10T02:42:03.029Z,72.70
2019-01-10T02:44:33.562Z,63.70
2019-01-10T02:47:04.861Z,64.13
2019-01-10T02:49:35.607Z,69.90
2019-01-10T02:52:07.074Z,63.50
2019-01-10T02:54:38.859Z,62.93
2019-01-10T02:57:12.932Z,62.80
2019-01-10T02:59:46.176Z,63.53
2019-01-10T03:02:19.269Z,63.37
2019-01-10T03:04:50.608Z,56.53
2019-01-10T03:07:21.332Z,64.83
2019-01-10T03:09:52.352Z,60.13
2019-01-10T03:12:23.155Z,64.57
2019-01-10T03:14:53.801Z,62.80
2019-01-10T03:17:24.401Z,65.30
2019-01-10T03:19:54.924Z,60.47
2019-01-10T03:22:27.658Z,65.97
2019-01-10T03:24:58.224Z,63.83
2019-01-10T03:27:28.885Z,60.73
2019-01-10T03:29:59.484Z,67.80
2019-01-10T03:32:32.990Z,53.83
2019-01-10T03:35:04.582Z,59.40
2019-01-10T03:37:38.255Z,55.33
2019-01-10T03:40:23.068Z,62.27
2019-01-10T03:42:52.909Z,63.83
2019-01-10T03:45:23.655Z,54.70
2019-01-10T03:47:54.292Z,55.73
2019-01-10T03:50:24.871Z,47.57
2019-01-10T03:52:57.157Z,51.10
2019-01-10T03:55:27.801Z,53.30
2019-01-10T03:57:58.678Z,53.20
2019-01-10T04:00:29.335Z,63.60
2019-01-10T04:02:59.978Z,57.77
2019-01-10T04:05:30.695Z,53.07
2019-01-10T04:08:01.319Z,57.47
2019-01-10T04:10:35.422Z,46.97
2019-01-10T04:13:06.030Z,51.77
2019-01-10T04:15:36.565Z,49.07
2019-01-10T04:18:07.283Z,48.93
2019-01-10T04:20:37.913Z,40.87
2019-01-10T04:23:08.573Z,52.38
2019-01-10T04:25:39.104Z,48.23
2019-01-10T04:28:09.614Z,48.90
2019-01-10T04:30:40.231Z,44.77
2019-01-10T04:33:11.219Z,53.47
2019-01-10T04:35:43.068Z,52.13
2019-01-10T04:38:13.746Z,51.70
2019-01-10T04:40:44.311Z,55.13
2019-01-10T04:43:14.814Z,46.77
2019-01-10T04:45:46.421Z,52.07
2019-01-10T04:48:20.110Z,53.33
2019-01-10T04:50:51.987Z,49.40
2019-01-10T04:53:26.634Z,50.73
2019-01-10T04:55:56.288Z,49.40
2019-01-10T04:58:26.863Z,43.17
2019-01-10T05:01:00.284Z,47.73
2019-01-10T05:03:31.477Z,44.10
2019-01-10T05:06:02.136Z,42.33
2019-01-10T05:08:32.677Z,46.47
2019-01-10T05:11:03.362Z,58.30
2019-01-10T05:13:34.005Z,46.50
2019-01-10T05:16:04.972Z,48.93
2019-01-10T05:18:35.612Z,48.40
2019-01-10T05:21:07.586Z,49.55
2019-01-10T05:23:41.514Z,45.70
2019-01-10T05:26:12.157Z,51.23
2019-01-10T05:28:42.837Z,42.03
2019-01-10T05:31:13.480Z,44.38
2019-01-10T05:33:44.065Z,49.80
2019-01-10T05:36:15.005Z,48.05
2019-01-10T05:38:45.505Z,47.78
2019-01-10T05:41:16.115Z,45.80
2019-01-10T05:43:46.770Z,52.10
2019-01-10T05:46:18.968Z,49.27
2019-01-10T05:48:52.355Z,48.20
2019-01-10T05:51:22.889Z,52.55
2019-01-10T05:53:54.578Z,48.00
2019-01-10T05:56:25.484Z,41.55
2019-01-10T05:58:56.419Z,45.55
2019-01-10T06:01:26.982Z,49.65
2019-01-10T06:03:57.723Z,43.60
2019-01-10T06:06:28.336Z,39.73
2019-01-10T06:08:58.835Z,41.08
2019-01-10T06:11:29.568Z,57.73
2019-01-10T06:14:00.147Z,53.07
2019-01-10T06:16:30.733Z,41.60
2019-01-10T06:19:02.324Z,49.45
2019-01-10T06:21:33.524Z,46.10
2019-01-10T06:24:04.090Z,41.37
2019-01-10T06:26:34.662Z,43.95
2019-01-10T06:29:05.251Z,40.15
2019-01-10T06:31:35.843Z,42.65
2019-01-10T06:34:06.938Z,37.40
2019-01-10T06:36:42.932Z,34.98
2019-01-10T06:39:17.590Z,43.60
2019-01-10T06:41:50.598Z,45.17
2019-01-10T06:44:21.591Z,43.83
2019-01-10T06:46:52.690Z,47.77
2019-01-10T06:49:23.556Z,44.80
2019-01-10T06:51:54.166Z,53.90
2019-01-10T06:54:25.508Z,40.47
2019-01-10T06:56:55.978Z,43.85
2019-01-10T06:59:26.599Z,41.63
2019-01-10T07:01:57.343Z,40.97
2019-01-10T07:04:27.808Z,44.60
2019-01-10T07:06:58.304Z,40.00
2019-01-10T07:09:28.822Z,39.08
2019-01-10T07:11:59.324Z,36.20
2019-01-10T07:14:29.899Z,34.00
2019-01-10T07:17:00.369Z,40.93
2019-01-10T07:19:46.086Z,30.87
2019-01-10T07:22:17.172Z,35.80
2019-01-10T07:24:51.753Z,36.33
2019-01-10T07:27:22.382Z,38.00
2019-01-10T07:29:55.007Z,36.40
2019-01-10T07:32:25.796Z,27.15
2019-01-10T07:34:59.677Z,35.52
2019-01-10T07:37:30.287Z,35.92
2019-01-10T07:40:00.884Z,38.43
2019-01-10T07:42:35.470Z,38.03
2019-01-10T07:45:10.149Z,36.68
2019-01-10T07:47:50.309Z,39.63
2019-01-10T07:50:26.346Z,36.45
2019-01-10T07:52:57.466Z,42.60
2019-01-10T07:55:28.963Z,44.08
2019-01-10T07:57:59.608Z,37.73
2019-01-10T08:00:30.138Z,31.93
2019-01-10T08:03:00.809Z,35.87
2019-01-10T08:05:32.756Z,43.48
2019-01-10T08:08:03.482Z,52.73
2019-01-10T08:10:34.059Z,62.62
2019-01-10T08:13:04.841Z,72.67
2019-01-10T08:15:35.582Z,57.48
2019-01-10T08:18:06.305Z,55.50
2019-01-10T08:20:36.852Z,52.63
2019-01-10T08:23:07.452Z,44.40
2019-01-10T08:25:37.960Z,50.58
2019-01-10T08:28:11.032Z,56.83
2019-01-10T08:30:41.507Z,50.77
2019-01-10T08:33:12.181Z,48.50
2019-01-10T08:35:42.883Z,53.00
2019-01-10T08:38:13.479Z,53.43
2019-01-10T08:40:44.251Z,56.30
2019-01-10T08:43:14.909Z,56.17
2019-01-10T08:45:45.568Z,53.43
2019-01-10T08:48:16.191Z,59.60
2019-01-10T08:50:46.653Z,80.23
2019-01-10T08:53:17.227Z,64.87
2019-01-10T08:55:47.876Z,72.83
2019-01-10T08:58:18.504Z,70.10
2019-01-10T09:00:49.030Z,68.93
2019-01-10T09:03:19.695Z,69.40
2019-01-10T09:05:50.257Z,59.03
2019-01-10T09:08:20.935Z,58.53
2019-01-10T09:10:51.521Z,59.30
2019-01-10T09:13:22.081Z,57.00
2019-01-10T09:15:52.541Z,59.43
2019-01-10T09:18:23.139Z,57.50
2019-01-10T09:21:03.947Z,57.57
2019-01-10T09:23:31.652Z,53.90
2019-01-10T09:26:02.156Z,57.80
2019-01-10T09:28:32.672Z,69.33
2019-01-10T09:31:03.246Z,73.33
2019-01-10T09:33:33.798Z,62.90
2019-01-10T09:36:04.441Z,65.87
2019-01-10T09:38:34.968Z,54.10
2019-01-10T09:41:05.577Z,65.27
2019-01-10T09:43:36.002Z,59.40
2019-01-10T09:46:06.554Z,55.97
2019-01-10T09:48:37.804Z,53.13
2019-01-10T09:51:08.347Z,58.20
2019-01-10T09:53:39.002Z,45.40
2019-01-10T09:56:10.383Z,49.63
2019-01-10T09:58:40.835Z,51.17
2019-01-10T10:01:11.473Z,48.77
2019-01-10T10:03:42.043Z,46.40
2019-01-10T10:06:12.569Z,51.77
2019-01-10T10:08:43.113Z,53.50
2019-01-10T10:11:13.562Z,58.27
2019-01-10T10:13:44.062Z,59.50
2019-01-10T10:16:14.718Z,67.03
2019-01-10T10:18:45.231Z,62.70
2019-01-10T10:21:15.757Z,62.47
2019-01-10T10:23:46.329Z,56.60
2019-01-10T10:26:16.874Z,57.67
2019-01-10T10:28:47.446Z,58.03
2019-01-10T10:31:17.861Z,58.00
2019-01-10T10:33:48.274Z,56.53
2019-01-10T10:36:19.012Z,54.73
2019-01-10T10:38:49.545Z,54.53
2019-01-10T10:41:20.164Z,52.27
2019-01-10T10:43:50.694Z,54.13
2019-01-10T10:46:21.245Z,59.83
2019-01-10T10:48:51.799Z,56.77
2019-01-10T10:51:22.585Z,64.43
2019-01-10T10:53:54.420Z,51.20
2019-01-10T10:56:25.826Z,58.60
2019-01-10T10:58:56.423Z,58.40
2019-01-10T11:01:27.626Z,60.07
2019-01-10T11:03:58.342Z,62.87
2019-01-10T11:06:28.897Z,63.50
2019-01-10T11:09:09.072Z,63.63
2019-01-10T11:11:35.578Z,67.03
2019-01-10T11:14:06.292Z,58.30
2019-01-10T11:16:36.818Z,63.47
2019-01-10T11:19:07.512Z,61.90
2019-01-10T11:21:39.630Z,53.90
2019-01-10T11:24:10.239Z,56.63
2019-01-10T11:26:42.300Z,48.10
2019-01-10T11:29:13.345Z,48.10
2019-01-10T11:31:43.931Z,36.50
2019-01-10T11:34:14.557Z,38.23
2019-01-10T11:36:45.217Z,32.53
2019-01-10T11:39:17.097Z,33.00
2019-01-10T11:41:47.659Z,30.00
2019-01-10T11:44:18.274Z,30.17
2019-01-10T11:46:48.828Z,30.73
2019-01-10T11:49:19.574Z,32.03
2019-01-10T11:51:50.111Z,32.77
2019-01-10T11:54:20.649Z,36.27
2019-01-10T11:56:52.893Z,34.43
2019-01-10T11:59:24.268Z,39.00
2019-01-10T12:01:58.342Z,41.87
2019-01-10T12:04:31.481Z,38.43
2019-01-10T12:07:03.402Z,39.77
2019-01-10T12:09:36.209Z,34.77
2019-01-10T12:12:06.863Z,36.57
2019-01-10T12:14:40.077Z,40.90
2019-01-10T12:17:10.798Z,41.77
2019-01-10T12:19:41.517Z,38.40
2019-01-10T12:22:12.206Z,39.33
2019-01-10T12:24:42.850Z,43.00
2019-01-10T12:27:13.836Z,42.87
2019-01-10T12:29:44.948Z,42.30
2019-01-10T12:32:16.971Z,47.67
2019-01-10T12:34:50.712Z,51.47
2019-01-10T12:37:22.991Z,52.70
2019-01-10T12:39:54.440Z,47.53
2019-01-10T12:42:25.542Z,48.23
2019-01-10T12:44:56.900Z,45.53
2019-01-10T12:47:28.768Z,37.70
2019-01-10T12:50:00.602Z,48.53
2019-01-10T12:52:35.206Z,42.93
2019-01-10T12:55:03.336Z,38.83
2019-01-10T12:57:34.579Z,40.87
2019-01-10T13:00:10.006Z,41.70
2019-01-10T13:02:40.442Z,36.57
2019-01-10T13:05:12.305Z,41.80
2019-01-10T13:07:43.043Z,40.13
2019-01-10T13:10:16.869Z,38.47
2019-01-10T13:12:48.482Z,36.53
2019-01-10T13:15:22.246Z,36.63
2019-01-10T13:17:52.700Z,41.77
2019-01-10T13:20:23.343Z,38.03
2019-01-10T13:22:53.936Z,35.97
2019-01-10T13:25:25.756Z,36.97
2019-01-10T13:27:57.312Z,39.07
2019-01-10T13:30:28.044Z,36.80
2019-01-10T13:32:58.661Z,36.17
2019-01-10T13:35:29.523Z,40.40
2019-01-10T13:38:00.205Z,38.63
2019-01-10T13:40:30.794Z,39.03
2019-01-10T13:43:01.394Z,38.23
2019-01-10T13:45:31.977Z,34.03
2019-01-10T13:48:03.022Z,37.90
2019-01-10T13:50:34.981Z,40.70
2019-01-10T13:53:05.770Z,41.27
2019-01-10T13:55:36.816Z,37.43
2019-01-10T13:58:08.558Z,38.50
2019-01-10T14:00:39.307Z,37.50
2019-01-10T14:03:11.735Z,39.10
2019-01-10T14:05:50.445Z,37.70
2019-01-10T14:08:21.465Z,38.17
2019-01-10T14:10:54.953Z,38.37
2019-01-10T14:13:25.473Z,38.07
2019-01-10T14:15:56.639Z,38.60
2019-01-10T14:18:27.406Z,37.17
2019-01-10T14:20:58.069Z,38.47
2019-01-10T14:23:28.709Z,35.43
2019-01-10T14:26:00.637Z,39.33
2019-01-10T14:28:31.766Z,38.33
2019-01-10T14:31:05.150Z,34.77
2019-01-10T14:33:36.443Z,39.20
2019-01-10T14:36:09.051Z,36.53
2019-01-10T14:38:39.731Z,33.60
2019-01-10T14:41:16.446Z,34.77
2019-01-10T14:43:47.118Z,36.60
2019-01-10T14:46:18.162Z,34.73
2019-01-10T14:48:53.958Z,34.03
2019-01-10T14:51:26.236Z,36.27
2019-01-10T14:53:56.845Z,40.23
2019-01-10T14:56:27.778Z,38.10
2019-01-10T14:58:59.978Z,33.67
2019-01-10T15:01:30.573Z,34.70
2019-01-10T15:04:01.181Z,35.10
2019-01-10T15:06:31.866Z,34.27
2019-01-10T15:09:02.785Z,36.67
2019-01-10T15:11:33.302Z,34.30
2019-01-10T15:14:03.927Z,34.67
2019-01-10T15:16:34.620Z,33.30
2019-01-10T15:19:08.545Z,35.33
2019-01-10T15:21:39.195Z,33.17
2019-01-10T15:24:10.275Z,33.63
2019-01-10T15:26:40.846Z,38.23
2019-01-10T15:29:11.311Z,33.77
2019-01-10T15:31:41.954Z,37.73
2019-01-10T15:34:14.505Z,33.67
2019-01-10T15:36:45.107Z,38.20
2019-01-10T15:39:15.504Z,40.33
2019-01-10T15:41:46.078Z,40.53
2019-01-10T15:44:16.783Z,38.17
2019-01-10T15:46:47.346Z,40.23
2019-01-10T15:49:17.885Z,38.10
2019-01-10T15:51:48.527Z,39.63
2019-01-10T15:54:19.014Z,38.13
2019-01-10T15:56:49.655Z,43.00
2019-01-10T15:59:21.048Z,38.27
2019-01-10T16:01:51.736Z,43.37
2019-01-10T16:04:22.422Z,44.00
2019-01-10T16:06:53.122Z,43.43
2019-01-10T16:09:27.050Z,41.87
2019-01-10T16:11:57.885Z,39.50
2019-01-10T16:14:28.518Z,35.33
2019-01-10T16:16:59.360Z,39.13
2019-01-10T16:19:30.023Z,35.53
2019-01-10T16:22:00.999Z,34.40
2019-01-10T16:24:33.308Z,34.47
2019-01-10T16:27:06.281Z,32.43
2019-01-10T16:29:37.286Z,34.27
2019-01-10T16:32:08.675Z,32.30
2019-01-10T16:34:39.511Z,30.60
2019-01-10T16:37:10.014Z,32.13
2019-01-10T16:39:40.513Z,33.63
2019-01-10T16:42:11.109Z,32.97
2019-01-10T16:44:42.094Z,31.50
2019-01-10T16:47:12.960Z,30.63
2019-01-10T16:49:43.805Z,31.23
2019-01-10T16:52:15.192Z,34.50
2019-01-10T16:54:47.148Z,33.93
2019-01-10T16:57:18.465Z,29.50
2019-01-10T16:59:49.797Z,34.67
2019-01-10T17:02:20.763Z,31.23
2019-01-10T17:04:51.277Z,30.83
2019-01-10T17:07:21.855Z,32.93
2019-01-10T17:09:52.472Z,28.97
2019-01-10T17:12:26.143Z,31.50
2019-01-10T17:14:57.053Z,27.93
2019-01-10T17:17:27.635Z,32.23
2019-01-10T17:20:00.383Z,32.53
2019-01-10T17:22:30.848Z,26.10
2019-01-10T17:25:01.762Z,31.03
2019-01-10T17:27:32.499Z,33.67
2019-01-10T17:30:03.045Z,31.50
2019-01-10T17:32:34.384Z,28.30
2019-01-10T17:35:10.297Z,28.17
2019-01-10T17:37:41.741Z,31.20
2019-01-10T17:40:16.993Z,30.83
2019-01-10T17:42:50.421Z,25.17
2019-01-10T17:45:25.550Z,29.80
2019-01-10T17:47:56.482Z,29.27
2019-01-10T17:50:30.271Z,29.37
2019-01-10T17:53:01.089Z,30.87
2019-01-10T17:55:39.466Z,32.97
2019-01-10T17:58:08.015Z,30.40
2019-01-10T18:00:40.554Z,34.43
2019-01-10T18:03:14.282Z,30.97
2019-01-10T18:05:48.074Z,34.07
2019-01-10T18:08:24.996Z,34.93
2019-01-10T18:10:55.614Z,31.40
2019-01-10T18:13:26.331Z,34.90
2019-01-10T18:15:58.331Z,29.60
2019-01-10T18:18:29.306Z,33.50
2019-01-10T18:21:01.920Z,33.93
2019-01-10T18:23:32.334Z,33.53
2019-01-10T18:26:03.290Z,30.93
2019-01-10T18:28:33.834Z,32.80
2019-01-10T18:31:04.548Z,35.77
2019-01-10T18:33:35.367Z,32.57
2019-01-10T18:36:05.943Z,33.03
2019-01-10T18:38:36.554Z,31.87
2019-01-10T18:41:09.605Z,38.27
2019-01-10T18:43:40.285Z,37.20
2019-01-10T18:46:19.278Z,36.27
2019-01-10T18:48:49.768Z,34.37
2019-01-10T18:51:20.440Z,35.70
2019-01-10T18:53:53.653Z,29.87
2019-01-10T18:56:29.267Z,36.27
2019-01-10T18:58:59.173Z,33.83
2019-01-10T19:01:30.543Z,35.87
2019-01-10T19:04:01.279Z,35.73
2019-01-10T19:06:31.858Z,37.13
2019-01-10T19:09:02.333Z,31.77
2019-01-10T19:11:33.656Z,30.97
2019-01-10T19:14:05.392Z,34.70
2019-01-10T19:16:36.100Z,31.83
2019-01-10T19:19:07.957Z,29.50
2019-01-10T19:21:38.626Z,31.73
2019-01-10T19:24:09.638Z,30.93
2019-01-10T19:26:40.224Z,30.60
2019-01-10T19:29:11.256Z,32.33
2019-01-10T19:31:41.861Z,32.47
2019-01-10T19:34:12.542Z,33.13
2019-01-10T19:36:43.252Z,31.87
2019-01-10T19:39:13.758Z,34.93
2019-01-10T19:41:44.865Z,29.07
2019-01-10T19:44:15.910Z,30.97
2019-01-10T19:46:46.628Z,34.73
2019-01-10T19:49:17.671Z,32.83
2019-01-10T19:51:48.347Z,38.63
2019-01-10T19:54:23.579Z,32.70
2019-01-10T19:56:54.188Z,36.40
2019-01-10T19:59:29.824Z,33.53
2019-01-10T20:02:01.372Z,30.50
2019-01-10T20:04:32.190Z,35.70
2019-01-10T20:07:03.136Z,40.80
2019-01-10T20:09:33.728Z,34.90
2019-01-10T20:12:04.669Z,35.37
2019-01-10T20:14:36.744Z,33.50
2019-01-10T20:17:07.665Z,32.57
2019-01-10T20:19:38.402Z,36.30
2019-01-10T20:22:09.355Z,36.80
2019-01-10T20:24:40.309Z,31.90
2019-01-10T20:27:15.275Z,31.23
2019-01-10T20:29:46.361Z,35.43
2019-01-10T20:32:17.012Z,35.77
2019-01-10T20:34:47.658Z,34.53
2019-01-10T20:37:18.471Z,36.13
2019-01-10T20:39:49.067Z,40.03
2019-01-10T20:42:19.582Z,38.07
2019-01-10T20:44:50.249Z,39.83
2019-01-10T20:47:20.837Z,38.67
2019-01-10T20:49:51.478Z,39.83
2019-01-10T20:52:22.023Z,33.73
2019-01-10T20:54:52.751Z,37.27
2019-01-10T20:57:23.395Z,34.17
2019-01-10T20:59:55.081Z,33.30
2019-01-10T21:02:29.221Z,37.30
2019-01-10T21:04:59.841Z,35.90
2019-01-10T21:07:33.697Z,33.73
2019-01-10T21:10:07.483Z,35.40
2019-01-10T21:12:38.166Z,36.13
2019-01-10T21:15:13.668Z,33.43
2019-01-10T21:17:44.714Z,36.00
2019-01-10T21:20:15.346Z,34.53
2019-01-10T21:22:46.083Z,32.97
2019-01-10T21:25:16.808Z,31.10
2019-01-10T21:27:48.718Z,37.13
2019-01-10T21:30:23.297Z,30.70
2019-01-10T21:33:00.968Z,37.63
2019-01-10T21:35:31.395Z,35.70
2019-01-10T21:38:02.413Z,33.33
2019-01-10T21:40:33.021Z,30.17
2019-01-10T21:43:04.914Z,32.30
2019-01-10T21:45:35.572Z,31.07
2019-01-10T21:48:06.214Z,30.07
2019-01-10T21:50:37.134Z,33.47
2019-01-10T21:53:08.146Z,34.93
2019-01-10T21:55:40.465Z,35.30
2019-01-10T21:58:13.887Z,32.10
2019-01-10T22:00:44.457Z,33.80
2019-01-10T22:03:19.905Z,33.57
2019-01-10T22:05:50.533Z,33.33
2019-01-10T22:08:21.663Z,39.40
2019-01-10T22:10:57.395Z,38.20
2019-01-10T22:13:28.060Z,34.03
2019-01-10T22:15:58.502Z,36.47
2019-01-10T22:18:29.061Z,37.37
2019-01-10T22:21:00.319Z,36.33
2019-01-10T22:23:33.904Z,40.07
2019-01-10T22:26:04.680Z,37.90
2019-01-10T22:28:35.193Z,34.90
2019-01-10T22:31:07.635Z,33.47
2019-01-10T22:33:41.293Z,33.70
2019-01-10T22:36:12.973Z,35.87
2019-01-10T22:38:43.565Z,32.83
2019-01-10T22:41:14.527Z,35.97
2019-01-10T22:43:46.671Z,30.10
2019-01-10T22:46:17.471Z,36.83
2019-01-10T22:48:48.423Z,39.83
2019-01-10T22:51:19.086Z,37.30
2019-01-10T22:53:50.972Z,39.77
2019-01-10T22:56:21.964Z,31.97
2019-01-10T22:58:52.672Z,36.53
2019-01-10T23:01:31.271Z,35.37
2019-01-10T23:04:03.190Z,35.30
2019-01-10T23:06:33.894Z,31.60
2019-01-10T23:09:11.598Z,31.63
2019-01-10T23:11:42.252Z,36.87
2019-01-10T23:14:13.189Z,35.07
2019-01-10T23:16:43.861Z,36.40
2019-01-10T23:19:14.866Z,35.73
2019-01-10T23:21:45.488Z,43.33
2019-01-10T23:24:16.467Z,34.53
2019-01-10T23:26:51.539Z,34.50
2019-01-10T23:29:22.342Z,33.80
2019-01-10T23:31:53.031Z,36.57
2019-01-10T23:34:23.802Z,38.57
2019-01-10T23:36:55.016Z,36.03
2019-01-10T23:39:28.036Z,38.27
2019-01-10T23:42:01.379Z,37.77
2019-01-10T23:44:30.902Z,39.00
2019-01-10T23:47:04.119Z,35.50
2019-01-10T23:49:34.129Z,38.17
2019-01-10T23:52:05.261Z,34.63
2019-01-10T23:54:38.961Z,37.63
2019-01-10T23:57:09.736Z,42.60
2019-01-10T23:59:43.487Z,43.87
